createdAt,value
2022-09-07T00:01:48.035Z,17.50
2022-09-07T00:03:57.157Z,17.60
2022-09-07T00:06:07.326Z,17.70
2022-09-07T00:08:13.335Z,17.80
2022-09-07T00:10:21.827Z,17.80
2022-09-07T00:12:26.911Z,17.70
2022-09-07T00:14:32.276Z,17.70
2022-09-07T00:16:37.867Z,17.80
2022-09-07T00:18:45.981Z,17.70
2022-09-07T00:21:01.913Z,17.40
2022-09-07T00:23:07.347Z,17.20
2022-09-07T00:25:12.958Z,16.40
2022-09-07T00:27:20.772Z,15.90
2022-09-07T00:29:26.571Z,16.00
2022-09-07T00:31:33.734Z,16.00
2022-09-07T00:33:39.214Z,16.50
2022-09-07T00:35:46.421Z,16.80
2022-09-07T00:37:51.415Z,17.00
2022-09-07T00:39:57.363Z,16.80
2022-09-07T00:42:02.841Z,16.60
2022-09-07T00:44:53.054Z,16.50
2022-09-07T00:47:01.294Z,16.80
2022-09-07T00:49:14.732Z,17.10
2022-09-07T00:51:27.135Z,17.20
2022-09-07T00:53:37.357Z,17.40
2022-09-07T00:55:45.694Z,17.30
2022-09-07T00:57:56.104Z,17.10
2022-09-07T01:00:03.264Z,16.50
2022-09-07T01:02:12.172Z,16.30
2022-09-07T01:04:18.415Z,16.30
2022-09-07T01:06:26.560Z,16.60
2022-09-07T01:08:33.101Z,16.70
2022-09-07T01:10:39.775Z,16.70
2022-09-07T01:12:44.997Z,16.70
2022-09-07T01:14:54.984Z,16.60
2022-09-07T01:17:14.749Z,16.80
2022-09-07T01:20:08.804Z,17.00
2022-09-07T01:22:41.409Z,17.00
2022-09-07T01:25:02.575Z,17.00
2022-09-07T01:27:59.792Z,17.10
2022-09-07T01:30:10.283Z,17.10
2022-09-07T01:32:25.728Z,15.90
2022-09-07T01:34:31.124Z,15.90
2022-09-07T01:36:50.355Z,16.40
2022-09-07T01:38:59.252Z,16.70
2022-09-07T01:41:10.140Z,16.90
2022-09-07T01:43:27.601Z,16.90
2022-09-07T01:45:38.725Z,16.90
2022-09-07T01:47:48.878Z,17.00
2022-09-07T01:50:02.174Z,17.00
2022-09-07T01:52:13.351Z,17.00
2022-09-07T01:54:25.592Z,16.90
2022-09-07T01:56:36.190Z,16.70
2022-09-07T01:58:49.530Z,16.80
2022-09-07T02:01:01.946Z,16.70
2022-09-07T02:03:15.987Z,16.60
2022-09-07T02:05:26.667Z,16.50
2022-09-07T02:07:38.157Z,16.80
2022-09-07T02:09:50.456Z,16.90
2022-09-07T02:11:56.596Z,17.00
2022-09-07T02:14:13.903Z,16.90
2022-09-07T02:16:23.939Z,16.80
2022-09-07T02:18:34.835Z,16.60
2022-09-07T02:20:43.626Z,16.60
2022-09-07T02:22:55.244Z,16.20
2022-09-07T02:25:06.200Z,16.40
2022-09-07T02:27:15.405Z,16.50
2022-09-07T02:29:24.525Z,16.70
2022-09-07T02:31:31.667Z,16.80
2022-09-07T02:33:37.087Z,16.80
2022-09-07T02:35:42.210Z,16.80
2022-09-07T02:37:47.932Z,16.90
2022-09-07T02:39:54.890Z,16.70
2022-09-07T02:42:00.023Z,16.80
2022-09-07T02:44:09.942Z,16.50
2022-09-07T02:46:33.025Z,16.40
2022-09-07T02:48:52.418Z,15.90
2022-09-07T02:51:14.644Z,15.90
2022-09-07T02:53:38.557Z,16.00
2022-09-07T02:55:53.988Z,16.20
2022-09-07T02:58:14.112Z,16.50
2022-09-07T03:00:26.457Z,16.30
2022-09-07T03:02:44.593Z,16.50
2022-09-07T03:04:58.089Z,16.70
2022-09-07T03:07:10.781Z,16.70
2022-09-07T03:09:21.957Z,16.80
2022-09-07T03:11:28.366Z,16.90
2022-09-07T03:13:33.756Z,16.80
2022-09-07T03:15:39.072Z,16.80
2022-09-07T03:17:48.598Z,16.70
2022-09-07T03:19:53.588Z,16.90
2022-09-07T03:21:58.578Z,17.00
2022-09-07T03:24:04.323Z,17.00
2022-09-07T03:26:09.461Z,17.00
2022-09-07T03:28:15.176Z,17.10
2022-09-07T03:30:20.770Z,17.00
2022-09-07T03:32:25.799Z,17.10
2022-09-07T03:34:34.000Z,17.20
2022-09-07T03:36:39.144Z,17.10
2022-09-07T03:38:44.679Z,16.50
2022-09-07T03:40:50.024Z,16.40
2022-09-07T03:42:55.355Z,16.60
2022-09-07T03:45:00.878Z,16.80
2022-09-07T03:47:06.199Z,17.00
2022-09-07T03:49:11.227Z,17.10
2022-09-07T03:51:20.819Z,16.60
2022-09-07T03:53:26.484Z,16.70
2022-09-07T03:55:31.505Z,16.80
2022-09-07T03:57:36.865Z,16.40
2022-09-07T03:59:42.470Z,16.20
2022-09-07T04:01:47.924Z,16.40
2022-09-07T04:03:53.720Z,16.20
2022-09-07T04:06:01.398Z,16.40
2022-09-07T04:08:09.220Z,16.70
2022-09-07T04:10:14.269Z,16.90
2022-09-07T04:12:20.061Z,16.90
2022-09-07T04:14:25.247Z,16.90
2022-09-07T04:16:31.297Z,16.80
2022-09-07T04:18:39.247Z,16.40
2022-09-07T04:20:44.357Z,16.30
2022-09-07T04:22:54.311Z,16.60
2022-09-07T04:25:02.038Z,16.70
2022-09-07T04:27:07.241Z,16.80
2022-09-07T04:29:13.603Z,16.90
2022-09-07T04:31:20.872Z,16.90
2022-09-07T04:33:26.088Z,16.90
2022-09-07T04:35:31.689Z,16.90
2022-09-07T04:37:36.690Z,17.00
2022-09-07T04:39:44.184Z,17.00
2022-09-07T04:41:54.241Z,16.80
2022-09-07T04:44:05.559Z,16.60
2022-09-07T04:46:22.308Z,16.50
2022-09-07T04:48:30.598Z,16.60
2022-09-07T04:50:38.251Z,16.70
2022-09-07T04:52:44.562Z,16.70
2022-09-07T04:54:54.771Z,16.70
2022-09-07T04:57:06.497Z,16.70
2022-09-07T04:59:14.188Z,16.60
2022-09-07T05:01:24.256Z,16.60
2022-09-07T05:03:31.294Z,16.60
2022-09-07T05:05:41.802Z,16.70
2022-09-07T05:07:48.927Z,16.70
2022-09-07T05:09:54.568Z,16.70
2022-09-07T05:12:03.637Z,16.80
2022-09-07T05:14:11.271Z,16.80
2022-09-07T05:16:21.675Z,16.80
2022-09-07T05:18:29.065Z,16.70
2022-09-07T05:20:35.956Z,16.60
2022-09-07T05:22:42.513Z,16.70
2022-09-07T05:24:50.075Z,16.70
2022-09-07T05:26:56.929Z,16.30
2022-09-07T05:31:35.903Z,15.80
2022-09-07T05:36:19.178Z,16.20
2022-09-07T05:38:28.664Z,16.50
2022-09-07T05:40:40.484Z,16.60
2022-09-07T05:42:47.690Z,16.70
2022-09-07T05:44:57.817Z,16.40
2022-09-07T05:47:06.797Z,16.30
2022-09-07T05:49:16.226Z,16.40
2022-09-07T05:51:22.512Z,16.60
2022-09-07T05:53:29.615Z,16.70
2022-09-07T05:55:36.755Z,16.70
2022-09-07T05:57:44.296Z,16.90
2022-09-07T05:59:50.915Z,16.90
2022-09-07T06:02:00.261Z,17.00
2022-09-07T06:04:07.177Z,17.00
2022-09-07T06:06:16.635Z,17.10
2022-09-07T06:08:22.724Z,17.20
2022-09-07T06:10:46.654Z,17.20
2022-09-07T06:12:53.728Z,17.20
2022-09-07T06:15:01.471Z,17.20
2022-09-07T06:17:10.156Z,17.20
2022-09-07T06:19:16.432Z,17.20
2022-09-07T06:21:24.495Z,17.20
2022-09-07T06:23:30.053Z,17.20
2022-09-07T06:25:35.837Z,17.20
2022-09-07T06:27:41.500Z,17.20
2022-09-07T06:29:47.445Z,17.20
2022-09-07T06:34:23.510Z,17.30
2022-09-07T06:36:32.706Z,17.30
2022-09-07T06:38:41.020Z,17.30
2022-09-07T06:40:46.789Z,17.40
2022-09-07T06:42:54.839Z,17.40
2022-09-07T06:45:00.520Z,17.50
2022-09-07T06:47:06.908Z,17.50
2022-09-07T06:49:13.683Z,17.50
2022-09-07T06:51:26.847Z,17.50
2022-09-07T06:53:39.504Z,17.50
2022-09-07T06:55:48.388Z,17.60
2022-09-07T06:57:55.749Z,17.60
2022-09-07T07:00:02.829Z,17.70
2022-09-07T07:02:10.014Z,17.60
2022-09-07T07:04:16.140Z,17.60
2022-09-07T07:06:25.262Z,17.70
2022-09-07T07:08:32.902Z,17.70
2022-09-07T07:10:42.737Z,17.80
2022-09-07T07:12:48.804Z,17.80
2022-09-07T07:14:54.902Z,17.90
2022-09-07T07:17:01.214Z,17.90
2022-09-07T07:19:07.166Z,18.00
2022-09-07T07:21:15.689Z,18.00
2022-09-07T07:23:25.386Z,18.10
2022-09-07T07:25:40.685Z,18.10
2022-09-07T07:27:51.724Z,18.20
2022-09-07T07:30:00.879Z,18.20
2022-09-07T07:32:10.541Z,18.30
2022-09-07T07:34:23.027Z,18.40
2022-09-07T07:36:31.579Z,18.40
2022-09-07T07:38:59.846Z,18.50
2022-09-07T07:43:38.350Z,18.60
2022-09-07T07:45:55.485Z,18.90
2022-09-07T07:48:04.302Z,19.00
2022-09-07T07:57:39.148Z,19.20
2022-09-07T07:59:48.072Z,19.30
2022-09-07T08:01:54.513Z,19.30
2022-09-07T08:04:01.722Z,19.40
2022-09-07T08:06:13.819Z,19.60
2022-09-07T08:08:23.448Z,19.60
2022-09-07T08:10:32.466Z,19.60
2022-09-07T08:12:40.719Z,19.50
2022-09-07T08:14:46.873Z,19.60
2022-09-07T08:16:53.525Z,19.70
2022-09-07T08:19:00.978Z,19.90
2022-09-07T08:21:09.621Z,19.90
2022-09-07T08:23:20.939Z,19.90
2022-09-07T08:25:26.826Z,19.80
2022-09-07T08:27:46.115Z,19.90
2022-09-07T08:29:51.770Z,20.00
2022-09-07T08:31:58.403Z,20.10
2022-09-07T08:34:07.850Z,20.20
2022-09-07T08:36:16.937Z,20.30
2022-09-07T08:38:25.804Z,20.30
2022-09-07T08:40:34.393Z,20.40
2022-09-07T08:43:02.326Z,20.40
2022-09-07T08:45:12.909Z,20.40
2022-09-07T08:47:32.615Z,20.50
2022-09-07T08:49:52.333Z,20.50
2022-09-07T08:52:04.424Z,20.40
2022-09-07T08:54:14.240Z,20.40
2022-09-07T08:56:33.482Z,20.40
2022-09-07T08:58:50.197Z,20.50
2022-09-07T09:03:30.015Z,20.50
2022-09-07T09:05:48.171Z,20.70
2022-09-07T09:08:18.577Z,20.60
2022-09-07T09:10:37.824Z,20.70
2022-09-07T09:13:01.657Z,20.70
2022-09-07T09:15:22.325Z,20.70
2022-09-07T09:17:36.992Z,20.70
2022-09-07T09:20:01.637Z,20.70
2022-09-07T09:22:14.953Z,20.80
2022-09-07T09:24:30.787Z,20.80
2022-09-07T09:26:38.687Z,20.80
2022-09-07T09:28:44.753Z,20.90
2022-09-07T09:30:57.283Z,21.10
2022-09-07T09:33:22.608Z,21.30
2022-09-07T09:35:35.333Z,21.40
2022-09-07T09:37:44.218Z,21.40
2022-09-07T09:40:02.995Z,21.30
2022-09-07T09:42:21.173Z,21.30
2022-09-07T09:44:30.408Z,21.40
2022-09-07T09:46:47.680Z,21.30
2022-09-07T09:48:59.614Z,21.50
2022-09-07T09:53:46.718Z,21.50
2022-09-07T09:55:55.292Z,21.60
2022-09-07T10:00:31.398Z,21.90
2022-09-07T10:05:06.499Z,21.90
2022-09-07T10:07:24.594Z,22.10
2022-09-07T10:09:37.860Z,22.30
2022-09-07T10:14:22.412Z,22.50
2022-09-07T10:16:41.538Z,22.60
2022-09-07T10:19:00.281Z,22.60
2022-09-07T10:21:29.786Z,22.90
2022-09-07T10:23:34.851Z,22.90
2022-09-07T10:25:44.361Z,22.90
2022-09-07T10:27:49.550Z,23.00
2022-09-07T10:29:54.648Z,22.90
2022-09-07T10:32:21.964Z,23.00
2022-09-07T10:34:42.166Z,22.80
2022-09-07T10:36:55.616Z,23.10
2022-09-07T10:39:05.241Z,23.10
2022-09-07T10:41:12.829Z,23.20
2022-09-07T10:43:22.094Z,23.20
2022-09-07T10:45:38.892Z,23.00
2022-09-07T10:47:59.442Z,23.10
2022-09-07T10:50:23.013Z,23.40
2022-09-07T10:52:38.588Z,23.40
2022-09-07T10:54:55.985Z,23.30
2022-09-07T10:57:16.046Z,23.60
2022-09-07T11:02:19.023Z,23.40
2022-09-07T11:04:50.127Z,23.50
2022-09-07T11:07:14.921Z,23.50
2022-09-07T11:09:57.734Z,23.70
2022-09-07T11:12:10.351Z,23.80
2022-09-07T11:14:21.147Z,23.90
2022-09-07T11:22:02.614Z,23.60
2022-09-07T11:24:10.339Z,23.70
2022-09-07T11:26:23.149Z,24.30
2022-09-07T11:28:37.425Z,24.20
2022-09-07T11:30:54.594Z,24.30
2022-09-07T11:33:17.353Z,24.30
2022-09-07T11:35:32.587Z,24.50
2022-09-07T11:37:46.612Z,24.80
2022-09-07T11:40:00.835Z,24.80
2022-09-07T11:44:55.747Z,24.70
2022-09-07T11:47:06.542Z,24.70
2022-09-07T11:49:21.932Z,24.70
2022-09-07T11:51:38.950Z,24.50
2022-09-07T11:53:49.499Z,24.60
2022-09-07T11:56:01.703Z,24.80
2022-09-07T11:58:39.427Z,24.90
2022-09-07T12:00:55.552Z,25.00
2022-09-07T12:03:33.564Z,25.00
2022-09-07T12:06:37.214Z,24.70
2022-09-07T12:09:00.439Z,24.80
2022-09-07T12:11:53.525Z,25.10
2022-09-07T12:14:36.128Z,25.10
2022-09-07T12:17:04.616Z,25.10
2022-09-07T12:19:25.652Z,25.70
2022-09-07T12:21:44.808Z,25.80
2022-09-07T12:23:50.228Z,25.90
2022-09-07T12:25:56.349Z,25.80
2022-09-07T12:28:04.975Z,25.60
2022-09-07T12:30:52.251Z,25.90
2022-09-07T12:33:06.947Z,26.20
2022-09-07T12:35:41.569Z,26.10
2022-09-07T12:37:47.642Z,26.60
2022-09-07T12:39:52.774Z,26.50
2022-09-07T12:42:39.229Z,26.60
2022-09-07T12:44:47.887Z,27.20
2022-09-07T12:47:02.475Z,27.60
2022-09-07T12:49:36.758Z,27.80
2022-09-07T12:54:19.280Z,27.70
2022-09-07T12:56:41.420Z,27.60
2022-09-07T12:59:04.411Z,27.80
2022-09-07T13:01:30.632Z,28.00
2022-09-07T13:04:15.713Z,28.30
2022-09-07T13:09:32.424Z,27.60
2022-09-07T13:11:40.299Z,28.10
2022-09-07T13:14:04.750Z,28.10
2022-09-07T13:17:16.074Z,27.80
2022-09-07T13:19:02.763Z,28.00
2022-09-07T13:21:42.664Z,28.10
2022-09-07T13:26:57.893Z,28.40
2022-09-07T13:29:07.277Z,29.00
2022-09-07T13:31:43.553Z,28.20
2022-09-07T13:33:52.354Z,28.70
2022-09-07T13:36:00.607Z,29.00
2022-09-07T13:38:07.428Z,29.00
2022-09-07T13:40:17.467Z,28.60
2022-09-07T13:42:27.385Z,27.90
2022-09-07T13:44:35.302Z,27.80
2022-09-07T13:46:57.824Z,28.50
2022-09-07T13:49:12.843Z,28.40
2022-09-07T13:51:25.309Z,28.30
2022-09-07T13:53:53.374Z,28.00
2022-09-07T13:56:30.380Z,27.70
2022-09-07T13:58:42.292Z,27.60
2022-09-07T14:00:58.022Z,27.90
2022-09-07T14:03:09.649Z,28.30
2022-09-07T14:05:21.237Z,28.30
2022-09-07T14:07:29.067Z,28.70
2022-09-07T14:09:34.126Z,28.80
2022-09-07T14:11:45.205Z,29.20
2022-09-07T14:14:05.079Z,29.60
2022-09-07T14:16:10.765Z,29.10
2022-09-07T14:18:22.771Z,28.40
2022-09-07T14:20:28.480Z,27.70
2022-09-07T14:22:37.212Z,27.80
2022-09-07T14:24:46.029Z,27.80
2022-09-07T14:26:53.010Z,27.40
2022-09-07T14:29:01.969Z,27.60
2022-09-07T14:31:14.900Z,27.60
2022-09-07T14:33:25.409Z,27.70
2022-09-07T14:35:43.721Z,28.00
2022-09-07T14:37:51.334Z,28.00
2022-09-07T14:39:57.231Z,27.80
2022-09-07T14:42:09.573Z,27.30
2022-09-07T14:44:36.374Z,27.50
2022-09-07T14:46:42.951Z,27.30
2022-09-07T14:48:55.120Z,27.40
2022-09-07T14:51:26.074Z,26.80
2022-09-07T14:53:40.950Z,27.00
2022-09-07T14:55:52.541Z,27.50
2022-09-07T14:58:27.532Z,27.70
2022-09-07T15:00:35.406Z,28.20
2022-09-07T15:02:41.673Z,28.10
2022-09-07T15:04:53.046Z,27.30
2022-09-07T15:07:02.343Z,27.00
2022-09-07T15:09:09.972Z,26.20
2022-09-07T15:11:38.972Z,26.20
2022-09-07T15:13:59.077Z,26.50
2022-09-07T15:16:23.584Z,26.40
2022-09-07T15:18:59.263Z,26.40
2022-09-07T15:21:16.335Z,26.50
2022-09-07T15:23:27.767Z,26.20
2022-09-07T15:25:34.076Z,26.20
2022-09-07T15:27:40.366Z,25.90
2022-09-07T15:29:46.684Z,25.80
2022-09-07T15:32:02.248Z,25.30
2022-09-07T15:34:12.045Z,25.30
2022-09-07T15:36:21.942Z,25.00
2022-09-07T15:41:22.014Z,25.00
2022-09-07T15:43:25.757Z,25.00
2022-09-07T15:45:34.059Z,24.90
2022-09-07T15:47:47.128Z,25.00
2022-09-07T15:49:53.931Z,24.90
2022-09-07T15:52:05.402Z,24.80
2022-09-07T15:54:13.133Z,24.80
2022-09-07T15:56:20.176Z,24.80
2022-09-07T15:58:25.518Z,24.80
2022-09-07T16:00:30.948Z,24.70
2022-09-07T16:05:02.548Z,24.80
2022-09-07T16:07:10.708Z,24.60
2022-09-07T16:09:16.267Z,24.40
2022-09-07T16:11:24.333Z,24.40
2022-09-07T16:13:31.388Z,24.40
2022-09-07T16:15:45.554Z,24.50
2022-09-07T16:17:53.967Z,24.60
2022-09-07T16:20:02.205Z,24.40
2022-09-07T16:23:13.130Z,24.40
2022-09-07T16:24:38.774Z,24.40
2022-09-07T16:26:45.210Z,24.40
2022-09-07T16:28:53.662Z,24.40
2022-09-07T16:31:04.056Z,24.50
2022-09-07T16:33:10.899Z,24.60
2022-09-07T16:35:20.360Z,24.50
2022-09-07T16:37:27.984Z,24.50
2022-09-07T16:39:33.376Z,24.60
2022-09-07T16:41:39.249Z,24.40
2022-09-07T16:43:44.454Z,24.20
2022-09-07T16:46:05.276Z,24.20
2022-09-07T16:48:10.305Z,24.30
2022-09-07T16:50:16.144Z,24.30
2022-09-07T16:52:22.755Z,24.20
2022-09-07T16:54:32.382Z,24.10
2022-09-07T16:56:39.267Z,24.10
2022-09-07T16:58:47.129Z,24.20
2022-09-07T17:00:52.636Z,24.40
2022-09-07T17:02:58.186Z,24.40
2022-09-07T17:05:03.664Z,24.30
2022-09-07T17:07:08.974Z,24.20
2022-09-07T17:09:15.973Z,24.20
2022-09-07T17:11:26.863Z,24.10
2022-09-07T17:13:34.627Z,24.10
2022-09-07T17:15:39.765Z,24.00
2022-09-07T17:17:44.827Z,24.10
2022-09-07T17:19:50.628Z,24.10
2022-09-07T17:21:57.706Z,24.00
2022-09-07T17:24:04.562Z,24.00
2022-09-07T17:26:11.627Z,23.90
2022-09-07T17:28:19.988Z,23.80
2022-09-07T17:30:25.670Z,23.60
2022-09-07T17:32:32.662Z,23.60
2022-09-07T17:34:38.349Z,23.70
2022-09-07T17:36:43.738Z,23.60
2022-09-07T17:41:18.810Z,23.60
2022-09-07T17:43:45.575Z,23.60
2022-09-07T17:45:54.237Z,23.60
2022-09-07T17:48:03.242Z,23.60
2022-09-07T17:50:13.640Z,23.60
2022-09-07T17:52:20.958Z,23.60
2022-09-07T17:54:29.353Z,23.60
2022-09-07T17:56:39.140Z,23.50
2022-09-07T17:58:51.229Z,23.40
2022-09-07T18:01:06.711Z,23.30
2022-09-07T18:03:13.466Z,23.20
2022-09-07T18:05:19.221Z,23.20
2022-09-07T18:07:25.307Z,23.20
2022-09-07T18:09:30.953Z,23.10
2022-09-07T18:11:45.742Z,23.00
2022-09-07T18:14:00.109Z,23.00
2022-09-07T18:16:15.697Z,23.00
2022-09-07T18:18:22.589Z,22.90
2022-09-07T18:20:30.769Z,22.80
2022-09-07T18:22:39.488Z,22.80
2022-09-07T18:24:48.043Z,22.50
2022-09-07T18:26:57.273Z,22.50
2022-09-07T18:29:18.803Z,22.40
2022-09-07T18:31:38.986Z,22.20
2022-09-07T18:33:50.105Z,22.20
2022-09-07T18:35:56.181Z,22.10
2022-09-07T18:38:04.032Z,22.10
2022-09-07T18:40:11.778Z,22.10
2022-09-07T18:42:18.029Z,22.10
2022-09-07T18:46:53.293Z,22.00
2022-09-07T18:48:59.020Z,21.80
2022-09-07T18:51:09.768Z,21.50
2022-09-07T18:53:18.636Z,21.30
2022-09-07T18:55:28.189Z,21.50
2022-09-07T18:57:38.117Z,21.20
2022-09-07T18:59:50.702Z,20.70
2022-09-07T19:02:03.921Z,20.30
2022-09-07T19:04:23.712Z,20.40
2022-09-07T19:06:30.231Z,20.70
2022-09-07T19:08:38.492Z,20.80
2022-09-07T19:10:44.412Z,20.80
2022-09-07T19:12:51.526Z,20.80
2022-09-07T19:15:00.417Z,20.30
2022-09-07T19:17:08.668Z,20.10
2022-09-07T19:19:16.277Z,20.10
2022-09-07T19:21:26.170Z,20.00
2022-09-07T19:23:34.617Z,19.90
2022-09-07T19:25:44.900Z,19.90
2022-09-07T19:27:50.759Z,20.20
2022-09-07T19:29:59.158Z,20.00
2022-09-07T19:32:09.111Z,19.60
2022-09-07T19:34:16.031Z,20.00
2022-09-07T19:36:23.240Z,19.90
2022-09-07T19:38:30.031Z,20.20
2022-09-07T19:40:39.385Z,20.20
2022-09-07T19:42:47.064Z,20.20
2022-09-07T19:44:56.839Z,20.30
2022-09-07T19:47:05.628Z,20.30
2022-09-07T19:49:15.016Z,20.10
2022-09-07T19:51:25.107Z,20.40
2022-09-07T19:53:36.591Z,20.50
2022-09-07T19:55:43.342Z,20.40
2022-09-07T19:57:52.273Z,20.40
2022-09-07T20:00:00.922Z,20.50
2022-09-07T20:02:09.590Z,20.10
2022-09-07T20:04:26.256Z,19.80
2022-09-07T20:06:37.773Z,19.60
2022-09-07T20:08:45.499Z,19.20
2022-09-07T20:10:55.697Z,19.10
2022-09-07T20:13:01.865Z,19.10
2022-09-07T20:15:09.767Z,19.60
2022-09-07T20:17:18.183Z,19.60
2022-09-07T20:19:25.691Z,19.90
2022-09-07T20:21:32.640Z,20.00
2022-09-07T20:23:39.195Z,20.10
2022-09-07T20:25:48.019Z,20.20
2022-09-07T20:27:57.924Z,20.20
2022-09-07T20:30:04.344Z,20.30
2022-09-07T20:32:13.658Z,20.30
2022-09-07T20:34:22.746Z,20.20
2022-09-07T20:36:31.275Z,20.20
2022-09-07T20:38:43.494Z,20.20
2022-09-07T20:40:59.764Z,19.70
2022-09-07T20:43:08.450Z,19.40
2022-09-07T20:45:15.197Z,19.20
2022-09-07T20:47:20.573Z,19.30
2022-09-07T20:49:28.862Z,19.30
2022-09-07T20:51:40.598Z,19.50
2022-09-07T20:53:46.624Z,19.70
2022-09-07T20:56:00.799Z,19.80
2022-09-07T20:58:12.481Z,19.90
2022-09-07T21:00:19.264Z,19.90
2022-09-07T21:02:29.108Z,19.90
2022-09-07T21:04:38.151Z,19.80
2022-09-07T21:06:46.262Z,19.70
2022-09-07T21:08:56.250Z,19.40
2022-09-07T21:11:01.729Z,19.40
2022-09-07T21:13:07.809Z,19.30
2022-09-07T21:15:14.456Z,19.10
2022-09-07T21:17:21.036Z,19.20
2022-09-07T21:19:26.871Z,19.00
2022-09-07T21:21:42.541Z,18.90
2022-09-07T21:23:48.489Z,18.80
2022-09-07T21:25:57.816Z,18.60
2022-09-07T21:28:05.942Z,18.80
2022-09-07T21:30:20.475Z,19.00
2022-09-07T21:32:26.030Z,19.10
2022-09-07T21:34:31.488Z,19.20
2022-09-07T21:36:43.441Z,19.30
2022-09-07T21:38:55.188Z,19.30
2022-09-07T21:41:11.317Z,19.20
2022-09-07T21:43:20.510Z,19.20
2022-09-07T21:45:29.631Z,18.60
2022-09-07T21:47:34.771Z,18.10
2022-09-07T21:49:39.968Z,18.20
2022-09-07T21:51:47.647Z,18.40
2022-09-07T21:53:54.721Z,18.50
2022-09-07T21:56:00.017Z,18.70
2022-09-07T21:58:05.316Z,18.80
2022-09-07T22:00:13.864Z,18.80
2022-09-07T22:02:19.087Z,18.90
2022-09-07T22:04:25.436Z,18.90
2022-09-07T22:06:32.413Z,18.90
2022-09-07T22:08:42.893Z,18.90
2022-09-07T22:10:49.030Z,18.80
2022-09-07T22:12:54.058Z,18.70
2022-09-07T22:14:59.056Z,18.70
2022-09-07T22:19:12.980Z,18.70
2022-09-07T22:21:20.999Z,18.10
2022-09-07T22:23:26.114Z,17.60
2022-09-07T22:25:34.967Z,17.20
2022-09-07T22:27:44.028Z,17.40
2022-09-07T22:29:49.607Z,17.80
2022-09-07T22:31:54.712Z,18.00
2022-09-07T22:34:01.254Z,18.20
2022-09-07T22:36:19.558Z,18.30
2022-09-07T22:38:25.337Z,18.20
2022-09-07T22:40:33.171Z,18.20
2022-09-07T22:42:38.366Z,18.00
2022-09-07T22:44:43.905Z,17.40
2022-09-07T22:46:51.407Z,17.60
2022-09-07T22:49:03.862Z,17.50
2022-09-07T22:51:10.421Z,17.30
2022-09-07T22:53:16.909Z,17.20
2022-09-07T22:55:22.303Z,17.00
2022-09-07T22:57:33.349Z,17.30
2022-09-07T23:00:00.537Z,17.00
2022-09-07T23:02:28.187Z,17.20
2022-09-07T23:04:33.916Z,17.60
2022-09-07T23:06:42.000Z,17.50
2022-09-07T23:08:47.237Z,17.50
2022-09-07T23:10:53.119Z,17.50
2022-09-07T23:13:00.739Z,17.50
2022-09-07T23:15:05.567Z,17.60
2022-09-07T23:17:11.374Z,17.70
2022-09-07T23:19:18.317Z,17.70
2022-09-07T23:21:24.035Z,17.70
2022-09-07T23:23:29.940Z,17.70
2022-09-07T23:25:42.676Z,17.80
2022-09-07T23:27:48.067Z,17.70
2022-09-07T23:29:56.363Z,17.70
2022-09-07T23:32:01.809Z,17.70
2022-09-07T23:34:07.762Z,17.80
2022-09-07T23:36:13.509Z,17.80
2022-09-07T23:38:19.517Z,17.90
2022-09-07T23:40:25.009Z,17.70
2022-09-07T23:42:29.984Z,17.60
2022-09-07T23:44:35.632Z,17.10
2022-09-07T23:46:44.010Z,16.80
2022-09-07T23:48:50.734Z,16.60
2022-09-07T23:50:56.761Z,16.50
2022-09-07T23:53:01.995Z,16.20
2022-09-07T23:55:08.218Z,16.20
2022-09-07T23:57:13.637Z,16.30
2022-09-07T23:59:19.502Z,16.70
